• Join FlightAware (Why Join?)
  • Login
  • US Flag 
11:17AM EDT


 

Airport Tracker/Info


-or-


 

Live Flight TrackerFlight Track Log ✈ N38TA ✈ 04-Jan-2014 ✈ KAPF - KCHA

Flight Track Log - Related Links

Times and Time Zones

All times are in EST time to prevent confusion due to time zone crossing. See the N38TA flight status page for this flight to view local times or setup timezone preferences in your user account.

Time Position Orientation Groundspeed Altitude Reporting Facility
EST Latitude Longitude Course Direction KTS MPH feet Rate Location/Type
02:30PM 26.3069 -81.7717 347° North 210 242 5,100  Level Miami Center
02:31PM 26.3525 -81.7181 47° Northeast 210 242 6,900 1,560 Climbing Miami Center
02:32PM 26.4039 -81.7386 340° North 176 203 8,300 1,380 Climbing Miami Center
02:33PM 26.5783 -81.9260 352° North  Level Estimated
02:33PM 26.4572 -81.7711 331° Northwest 200 230 9,700  Level Miami Center
02:34PM 26.6493 -81.9512 347° North  Level Estimated
02:34PM 26.5153 -81.7806 352° North 205 236 10,800  Level Miami Center
02:35PM 26.5717 -81.7828 358° North 205 236 12,100 1,260 Climbing Miami Center
02:36PM 26.6278 -81.7897 354° North 200 230 13,400 1,140 Climbing Miami Center
02:37PM 26.6858 -81.7992 352° North 200 230 14,400 900 Climbing Miami Center
02:38PM 26.7442 -81.8064 354° North 200 230 15,300 840 Climbing Miami Center
02:39PM 26.8042 -81.8181 350° North 205 236 16,100 780 Climbing Miami Center
02:40PM 26.8664 -81.8300 350° North 214 246 16,900 660 Climbing Miami Center
02:41PM 26.9286 -81.8419 350° North 219 252 17,500 540 Climbing Miami Center
02:42PM 26.9928 -81.8564 349° North 224 258 18,000 300 Climbing Miami Center
02:43PM 27.0594 -81.8639 354° North 231 266 18,100 540 Climbing Miami Center
02:44PM 27.1217 -81.8761 350° North 246 283 19,100 780 Climbing Miami Center
02:45PM 27.1861 -81.8836 354° North 241 277 19,700 420 Climbing Miami Center
02:46PM 27.2647 -81.8986 350° North 243 280 20,000 120 Climbing Miami Center
02:47PM 27.3417 -81.9114 352° North 257 296 20,000  Level Miami Center
02:48PM 27.4206 -81.9217 353° North 280 322 20,000  Level Miami Center
02:49PM 27.4953 -81.9319 353° North 295 339 20,000  Level Miami Center
02:50PM 27.5742 -81.9472 350° North 290 334 20,000  Level Miami Center
02:51PM 27.6614 -81.9606 352° North 290 334 20,000  Level Miami Center
02:52PM 27.7422 -81.9736 352° North 295 339 20,000  Level Miami Center
02:53PM 27.8128 -81.9836 353° North 289 333 20,000  Level Miami Center
02:55PM 27.9864 -82.0136 351° North 288 331 20,000  Level Jacksonville Center
02:56PM 28.0492 -82.0461 335° Northwest 265 305 20,000  Level Jacksonville Center
02:57PM 28.1058 -82.0925 324° Northwest 253 291 20,000  Level Jacksonville Center
02:58PM 28.1706 -82.1322 332° Northwest 253 291 20,000  Level Jacksonville Center
02:59PM 28.2292 -82.1694 331° Northwest 253 291 20,000  Level Jacksonville Center
03:00PM 28.2922 -82.2089 331° Northwest 253 291 20,000  Level Jacksonville Center
03:01PM 28.3550 -82.2486 331° Northwest 253 291 20,000  Level Jacksonville Center
03:02PM 28.4136 -82.2883 329° Northwest 248 285 20,000  Level Jacksonville Center
03:03PM 28.4764 -82.3258 332° Northwest 248 285 20,000  Level Jacksonville Center
03:04PM 28.5392 -82.3681 329° Northwest 248 285 20,000  Level Jacksonville Center
03:05PM 28.5997 -82.4078 330° Northwest 248 285 20,000  Level Jacksonville Center
03:06PM 28.6625 -82.4500 329° Northwest 248 285 20,000  Level Jacksonville Center
03:07PM 28.7358 -82.4925 333° Northwest 253 291 20,000  Level Jacksonville Center
03:08PM 28.8006 -82.5325 332° Northwest 253 291 20,000  Level Jacksonville Center
03:09PM 28.8569 -82.5819 322° Northwest 258 297 20,000  Level Jacksonville Center
03:10PM 28.8947 -82.6458 304° West 245 282 20,000  Level Jacksonville Center
03:11PM 28.9261 -82.7194 296° West 245 282 20,000  Level Jacksonville Center
03:12PM 28.9597 -82.7906 298° West 250 288 20,000  Level Jacksonville Center
03:13PM 29.0306 -82.8167 342° North 242 278 20,000  Level Jacksonville Center
03:14PM 29.1078 -82.8308 351° North 249 287 20,000  Level Jacksonville Center
03:15PM 29.1808 -82.8617 340° North 270 311 20,000  Level Jacksonville Center
03:16PM 29.2539 -82.8903 341° North 270 311 20,000  Level Jacksonville Center
03:17PM 29.3292 -82.9211 340° North 275 316 20,000  Level Jacksonville Center
03:18PM 29.4064 -82.9497 342° North 275 316 20,000  Level Jacksonville Center
03:19PM 29.4814 -82.9761 343° North 280 322 20,000  Level Jacksonville Center
03:20PM 29.5586 -83.0047 342° North 286 329 20,000  Level Jacksonville Center
03:21PM 29.6358 -83.0311 343° North 286 329 20,000  Level Jacksonville Center
03:22PM 29.7153 -83.0575 344° North 286 329 20,000  Level Jacksonville Center
03:23PM 29.7925 -83.0842 343° North 286 329 20,000  Level Jacksonville Center
03:24PM 29.8675 -83.1081 345° North 278 320 20,000  Level Jacksonville Center
03:25PM 29.9489 -83.1347 344° North 291 335 20,000  Level Jacksonville Center
03:26PM 30.0178 -83.1614 341° North 294 338 20,000  Level Jacksonville Center
03:27PM 30.0969 -83.1831 347° North 294 338 20,000  Level Jacksonville Center
03:28PM 30.1742 -83.2122 342° North 294 338 20,000  Level Jacksonville Center
03:29PM 30.2536 -83.2364 345° North 288 331 20,000  Level Jacksonville Center
03:30PM 30.3308 -83.2631 343° North 288 331 20,000  Level Jacksonville Center
03:31PM 30.4058 -83.2900 343° North 293 337 20,000  Level Jacksonville Center
03:31PM 30.4119 -83.2900 360° North 288 331 20,000  Level Jacksonville Center
03:32PM 30.4892 -83.3217 341° North 294 338 20,000  Level Jacksonville Center
03:32PM 30.4872 -83.3217 180° South 288 331 20,000  Level Jacksonville Center
03:33PM 30.5581 -83.3486 342° North 294 338 20,000  Level Jacksonville Center
03:33PM 30.5664 -83.3486 360° North 288 331 20,000  Level Jacksonville Center
03:34PM 30.6394 -83.3756 342° North 297 342 20,000  Level Jacksonville Center
03:34PM 30.6456 -83.3731 19° North 288 331 20,000  Level Jacksonville Center
03:35PM 30.7289 -83.4072 341° North 296 341 20,000  Level Jacksonville Center
03:35PM 30.7247 -83.4025 136° Southeast 288 331 20,000  Level Jacksonville Center
03:36PM 30.8042 -83.4247 346° North 288 331 20,000  Level Jacksonville Center
03:37PM 30.8894 -83.4614 340° North 297 342 20,000  Level Jacksonville Center
03:37PM 30.8917 -83.4592 41° Northeast 288 331 20,000  Level Jacksonville Center
03:38PM 30.9667 -83.4861 343° North 298 343 20,000  Level Jacksonville Center
03:38PM 30.9731 -83.4861 360° North 288 331 20,000  Level Jacksonville Center
03:39PM 31.0564 -83.5158 343° North 297 342 20,000  Level Jacksonville Center
03:40PM 31.1272 -83.5406 343° North 297 342 20,000  Level Jacksonville Center
03:41PM 31.2106 -83.5703 343° North 299 344 20,000  Level Jacksonville Center
03:42PM 31.2878 -83.5953 345° North 297 342 20,000  Level Jacksonville Center
03:43PM 31.3689 -83.6225 344° North 316 364 20,000  Level Jacksonville Center
03:44PM 31.4503 -83.6500 344° North 311 358 20,000  Level Jacksonville Center
03:45PM 31.5314 -83.6775 344° North 305 351 20,000  Level Jacksonville Center
03:46PM 31.6086 -83.7072 342° North 300 345 20,000  Level Jacksonville Center
03:47PM 31.6836 -83.7300 346° North 300 345 20,000  Level Jacksonville Center
03:48PM 31.7628 -83.7600 342° North 300 345 20,000  Level Jacksonville Center
03:49PM 31.8439 -83.7878 344° North 300 345 20,000  Level Jacksonville Center
03:51PM 32.0219 -83.8575 342° North 296 341 20,000  Level Atlanta Center
03:52PM 32.1033 -83.8844 344° North 296 341 20,000  Level Atlanta Center
03:53PM 32.1847 -83.9136 343° North 302 348 20,000  Level Atlanta Center
03:54PM 32.2664 -83.9406 344° North 302 348 20,000  Level Atlanta Center
03:55PM 32.3478 -83.9725 342° North 302 348 20,000  Level Atlanta Center
03:56PM 32.4292 -84.0044 342° North 302 348 20,000  Level Atlanta Center
03:57PM 32.5125 -84.0289 346° North 302 348 20,000  Level Atlanta Center
03:58PM 32.5919 -84.0683 337° Northwest 302 348 20,000  Level Atlanta Center
03:59PM 32.6756 -84.1006 342° North 308 354 20,000 -420 Level Atlanta Center
04:00PM 32.7631 -84.1228 348° North 313 360 19,200 -720 Descending Atlanta Center
04:01PM 32.8508 -84.1600 340° North 324 373 18,600 -600 Descending Atlanta Center
04:02PM 32.9425 -84.1897 345° North 329 379 18,100 -300 Descending Atlanta Center
04:03PM 33.0406 -84.2297 341° North 336 387 18,000 -60 Descending Atlanta Center
04:04PM 33.1261 -84.2594 344° North 329 379 18,000  Level Atlanta Center
04:05PM 33.1992 -84.2869 343° North 319 367 18,000  Level Atlanta Center
04:06PM 33.2847 -84.3147 345° North 314 361 18,000  Level Atlanta Center
04:07PM 33.3661 -84.3447 343° North 309 356 18,000  Level Atlanta Center
04:08PM 33.4472 -84.3750 343° North 304 350 18,000  Level Atlanta Center
04:09PM 33.5328 -84.4028 345° North 304 350 18,000  Level Atlanta Center
04:10PM 33.6161 -84.4356 342° North 298 343 18,000  Level Atlanta Center
04:11PM 33.6933 -84.4733 338° Northwest 298 343 18,000  Level Atlanta Center
04:12PM 33.7744 -84.5186 335° Northwest 298 343 18,000  Level Atlanta Center
04:13PM 33.8494 -84.5592 336° Northwest 315 362 18,000  Level Atlanta Center
04:14PM 33.9267 -84.5997 336° Northwest 315 362 18,000  Level Atlanta Center
04:15PM 34.0078 -84.6403 337° Northwest 315 362 18,000  Level Atlanta Center
04:16PM 34.0828 -84.6833 335° Northwest 310 357 18,000 -60 Level Atlanta Center
04:17PM 34.1619 -84.7217 338° Northwest 305 351 17,900 -600 Descending Atlanta Center
04:18PM 34.2450 -84.7675 335° Northwest 315 362 16,900 -960 Descending Atlanta Center
04:20PM 34.4219 -84.8597 331° Northwest 320 368 15,100 -1,020 Descending Atlanta Center
04:21PM 34.5028 -84.9083 334° Northwest 320 368 13,900 -1,260 Descending Atlanta Center
04:22PM 34.5797 -84.9522 335° Northwest 310 357 12,600 -1,440 Descending Atlanta Center
04:23PM 34.6567 -84.9933 336° Northwest 305 351 11,100 -1,500 Descending Atlanta Center
04:24PM 34.7231 -85.0369 332° Northwest 300 345 9,600 -1,800 Descending Atlanta Center
04:25PM 34.8044 -85.0556 349° North 294 338 7,600 -2,100 Descending Atlanta Center
04:26PM 34.8897 -85.0794 347° North 294 338 5,500 -1,980 Descending Atlanta Center
04:27PM 34.9689 -85.0958 350° North 289 333 3,700 -1,140 Descending Atlanta Center
04:28PM 35.0397 -85.1092 351° North 274 315 3,300 -480 Descending Atlanta Center
04:29PM 35.0769 -85.1428 324° Northwest 208 239 2,800 -540 Descending Atlanta Center
04:31PM 35.0333 -85.2000 331° Northwest  Level FlightAware Approximate
04:38PM 35.0352 -85.2036 331° Northwest  Level Estimated
04:39PM 35.0333 -85.2000 331° Northwest  Level FlightAware Approximate